Time;durP1;ratioP1;P1;durP2;ratioP2;P2;SDS_P1;SDS_P2;PMS_P1;PMS_P2;Temp;Humidity;BMP_temperature;BMP_pressure;BME280_temperature;BME280_humidity;BME280_pressure;Samples;Min_cycle;Max_cycle;Signal;HPM_P1;HPM_P2
2022/06/19 00:02:39;;;;;;;65.03;60.03;;;;;;;12.05;100.00;101621.36;2007785;71;32805;-75
2022/06/19 00:08:24;;;;;;;61.20;56.40;;;;;;;11.76;100.00;101586.23;1995526;71;33249;-75
2022/06/19 00:14:09;;;;;;;61.60;56.50;;;;;;;11.69;100.00;101573.09;2014810;71;33311;-75
2022/06/19 00:19:54;;;;;;;56.20;51.50;;;;;;;11.78;100.00;101574.25;2008159;71;33311;-75
2022/06/19 00:25:42;;;;;;;58.00;53.10;;;;;;;11.81;100.00;101586.22;2016573;71;32799;-75
2022/06/19 00:31:27;;;;;;;59.10;53.83;;;;;;;12.13;100.00;101608.83;2015078;71;32978;-75
2022/06/19 00:37:12;;;;;;;57.57;52.67;;;;;;;11.98;100.00;101587.94;2011296;71;33329;-74
2022/06/19 00:42:56;;;;;;;60.60;55.50;;;;;;;12.17;100.00;101593.23;2007881;71;33464;-75
2022/06/19 00:48:45;;;;;;;60.90;55.80;;;;;;;12.16;100.00;101565.93;2016640;71;33495;-76
2022/06/19 00:54:33;;;;;;;62.20;56.93;;;;;;;12.10;100.00;101551.75;2004555;71;32751;-76
2022/06/19 01:00:24;;;;;;;64.87;59.50;;;;;;;12.10;100.00;101543.39;2006206;71;32781;-76
2022/06/19 01:06:11;;;;;;;62.63;57.57;;;;;;;12.09;100.00;101563.99;2011178;71;32860;-75
2022/06/19 01:11:55;;;;;;;59.93;54.90;;;;;;;12.22;100.00;101555.08;2016536;71;32864;-76
2022/06/19 01:17:41;;;;;;;63.13;57.83;;;;;;;11.95;100.00;101518.86;1991716;71;32831;-75
2022/06/19 01:23:31;;;;;;;65.50;60.23;;;;;;;12.02;100.00;101478.52;2003883;71;33342;-75
2022/06/19 01:29:17;;;;;;;64.67;59.20;;;;;;;12.04;100.00;101474.04;2011250;71;32939;-75
2022/06/19 01:35:05;;;;;;;63.40;58.30;;;;;;;11.94;100.00;101501.91;2016899;71;32870;-75
2022/06/19 01:40:53;;;;;;;63.87;58.77;;;;;;;12.13;100.00;101484.34;2014989;71;33372;-75
2022/06/19 01:46:37;;;;;;;63.90;58.50;;;;;;;12.16;100.00;101519.98;2012992;71;32813;-75
2022/06/19 01:52:23;;;;;;;69.47;63.77;;;;;;;12.09;100.00;101508.85;2004415;71;32895;-75
2022/06/19 01:58:10;;;;;;;63.37;57.57;;;;;;;12.07;100.00;101548.66;2006245;71;32788;-75
2022/06/19 02:03:57;;;;;;;62.73;57.53;;;;;;;12.01;100.00;101516.38;2014819;71;32915;-75
2022/06/19 02:09:44;;;;;;;64.70;59.30;;;;;;;12.16;100.00;101510.78;2015038;71;33409;-75
2022/06/19 02:15:31;;;;;;;65.37;60.03;;;;;;;12.19;100.00;101533.92;1991613;71;32801;-75
2022/06/19 02:21:19;;;;;;;64.07;58.97;;;;;;;12.03;100.00;101540.58;2009188;71;32916;-76
2022/06/19 02:27:05;;;;;;;67.00;61.20;;;;;;;12.11;100.00;101531.67;2015185;71;32881;-76
2022/06/19 02:32:53;;;;;;;65.17;59.57;;;;;;;12.11;100.00;101528.33;2002663;71;32883;-76
2022/06/19 02:38:39;;;;;;;62.13;57.00;;;;;;;12.04;100.00;101550.61;2013073;70;32829;-74
2022/06/19 02:44:32;;;;;;;62.53;57.17;;;;;;;12.15;100.00;101544.76;2004519;71;32750;-76
2022/06/19 02:50:19;;;;;;;62.17;57.10;;;;;;;12.17;100.00;101558.42;2006330;71;33389;-75
2022/06/19 02:56:04;;;;;;;64.77;59.20;;;;;;;12.35;100.00;101543.93;2003980;70;32841;-75
2022/06/19 03:01:48;;;;;;;66.27;60.73;;;;;;;12.30;100.00;101560.64;1991537;71;32850;-75
2022/06/19 03:07:34;;;;;;;62.17;56.87;;;;;;;12.31;100.00;101563.72;2013227;71;32897;-75
2022/06/19 03:13:21;;;;;;;61.67;56.40;;;;;;;12.10;100.00;101560.66;2014975;71;32987;-75
2022/06/19 03:19:14;;;;;;;63.33;57.90;;;;;;;12.07;100.00;101548.66;2009935;71;33322;-75
2022/06/19 03:25:00;;;;;;;63.30;57.77;;;;;;;12.28;100.00;101548.37;1994995;71;33384;-75
2022/06/19 03:30:44;;;;;;;64.20;58.97;;;;;;;12.12;100.00;101547.27;2002365;70;33432;-75
2022/06/19 03:36:28;;;;;;;59.93;54.80;;;;;;;12.15;100.00;101550.33;2010310;71;32829;-76
2022/06/19 03:42:15;;;;;;;65.73;59.77;;;;;;;12.01;100.00;101533.08;2013223;71;32969;-76
2022/06/19 03:47:59;;;;;;;67.97;62.27;;;;;;;12.06;100.00;101556.75;1994932;71;33422;-76
2022/06/19 03:53:45;;;;;;;64.57;59.17;;;;;;;12.12;100.00;101560.64;1998926;71;32803;-76
2022/06/19 03:59:33;;;;;;;61.13;55.83;;;;;;;12.16;100.00;101565.93;2010000;71;32819;-75
2022/06/19 04:05:19;;;;;;;67.03;61.43;;;;;;;12.25;100.00;101581.53;1991559;71;33302;-76
2022/06/19 04:11:04;;;;;;;63.33;57.73;;;;;;;12.19;100.00;101592.41;2014807;71;33335;-75
2022/06/19 04:16:49;;;;;;;63.97;58.17;;;;;;;12.19;100.00;101596.59;2014908;71;32964;-76
2022/06/19 04:22:36;;;;;;;65.80;60.00;;;;;;;12.24;100.00;101627.20;2011152;71;32822;-76
2022/06/19 04:28:24;;;;;;;64.07;58.20;;;;;;;12.31;100.00;101645.34;2002688;71;32797;-76
2022/06/19 04:34:09;;;;;;;67.40;61.50;;;;;;;12.31;100.00;101641.16;2004537;71;32732;-76
2022/06/19 04:39:54;;;;;;;67.70;61.83;;;;;;;12.37;100.00;101633.63;2013570;71;32848;-75
2022/06/19 04:45:38;;;;;;;66.93;61.33;;;;;;;12.31;100.00;101613.30;2014982;71;32962;-75
2022/06/19 04:51:24;;;;;;;69.23;63.80;;;;;;;12.41;100.00;101611.05;2000502;71;33137;-75
2022/06/19 04:57:08;;;;;;;66.03;60.40;;;;;;;12.39;100.00;101592.95;2004343;71;32843;-75
2022/06/19 05:02:53;;;;;;;71.90;65.97;;;;;;;12.43;100.00;101587.94;2015097;71;33437;-75
2022/06/19 05:08:38;;;;;;;68.63;62.93;;;;;;;12.57;100.00;101602.98;2006556;71;33346;-75
2022/06/19 05:14:24;;;;;;;66.73;61.03;;;;;;;12.57;100.00;101581.25;2010030;71;33292;-75
2022/06/19 05:20:10;;;;;;;70.17;64.40;;;;;;;12.37;100.00;101575.11;2011237;71;33014;-75
2022/06/19 05:26:01;;;;;;;68.30;62.40;;;;;;;12.60;100.00;101582.07;1995223;71;32746;-76
2022/06/19 05:31:46;;;;;;;66.40;60.70;;;;;;;12.64;100.00;101602.13;2012833;71;32962;-76
2022/06/19 05:37:30;;;;;;;65.80;60.23;;;;;;;12.73;100.00;101607.97;2005473;71;32827;-75
2022/06/19 05:43:14;;;;;;;68.53;62.73;;;;;;;12.79;100.00;101607.67;2013199;71;32828;-75
2022/06/19 05:49:07;;;;;;;68.60;62.67;;;;;;;13.18;100.00;101559.06;2000657;71;32799;-76
2022/06/19 05:54:52;;;;;;;66.60;60.90;;;;;;;13.33;100.00;101535.01;1996940;71;32807;-76
2022/06/19 06:00:37;;;;;;;70.83;65.17;;;;;;;13.28;100.00;101523.31;2006324;71;32780;-75
2022/06/19 06:06:23;;;;;;;72.87;66.93;;;;;;;13.37;100.00;101530.52;2008005;71;32774;-76
2022/06/19 06:12:09;;;;;;;76.83;70.53;;;;;;;13.60;100.00;101508.90;2014798;71;33515;-74
2022/06/19 06:17:54;;;;;;;75.10;68.97;;;;;;;13.57;100.00;101528.44;1998823;71;32930;-78
2022/06/19 06:23:39;;;;;;;70.27;64.00;;;;;;;13.74;100.00;101546.20;2004290;71;33020;-77
2022/06/19 06:29:25;;;;;;;74.60;68.20;;;;;;;13.54;100.00;101532.37;2014896;71;32887;-77
2022/06/19 06:35:10;;;;;;;73.30;67.60;;;;;;;13.63;100.00;101540.42;2014838;71;32849;-75
2022/06/19 06:40:55;;;;;;;72.07;66.37;;;;;;;13.49;100.00;101518.44;2016738;71;33023;-76
2022/06/19 06:46:39;;;;;;;72.50;66.70;;;;;;;13.55;100.00;101502.79;2004161;71;32927;-77
2022/06/19 06:52:24;;;;;;;74.50;68.53;;;;;;;13.80;100.00;101479.42;2016851;71;32974;-77
2022/06/19 06:58:09;;;;;;;71.40;65.53;;;;;;;13.82;100.00;101481.94;2015129;71;32820;-77
2022/06/19 07:03:55;;;;;;;69.10;63.63;;;;;;;14.08;100.00;101490.34;2006187;71;32925;-76
2022/06/19 07:09:40;;;;;;;68.67;63.17;;;;;;;14.22;100.00;101472.34;1996959;71;32838;-77
2022/06/19 07:15:26;;;;;;;72.27;67.07;;;;;;;14.31;100.00;101467.78;2013702;71;33403;-76
2022/06/19 07:21:12;;;;;;;70.00;64.53;;;;;;;14.21;100.00;101471.50;2002447;71;33487;-76
2022/06/19 07:26:57;;;;;;;69.67;64.47;;;;;;;14.41;100.00;101475.55;2016887;71;32821;-77
2022/06/19 07:32:41;;;;;;;67.60;62.60;;;;;;;14.69;100.00;101485.56;1995335;71;32806;-76
2022/06/19 07:38:27;;;;;;;69.87;64.73;;;;;;;15.34;100.00;101463.73;2009362;71;32820;-77
2022/06/19 07:44:11;;;;;;;65.57;61.03;;;;;;;15.32;100.00;101430.16;2010198;71;33282;-77
2022/06/19 07:50:13;;;;;;;67.77;63.00;;;;;;;15.48;100.00;101401.64;2015041;71;33387;-75
2022/06/19 07:55:59;;;;;;;65.70;61.23;;;;;;;15.54;100.00;101365.17;2016890;71;33349;-76
2022/06/19 08:01:45;;;;;;;63.07;58.77;;;;;;;15.69;100.00;101339.15;2013196;71;32841;-76
2022/06/19 08:07:30;;;;;;;61.37;57.10;;;;;;;15.71;100.00;101313.61;1996930;71;32935;-76
2022/06/19 08:13:19;;;;;;;59.50;55.63;;;;;;;16.24;100.00;101344.81;1998411;71;32862;-76
2022/06/19 08:19:03;;;;;;;53.83;50.20;;;;;;;16.62;100.00;101315.42;2002340;71;32809;-76
2022/06/19 08:24:47;;;;;;;52.67;49.47;;;;;;;16.86;100.00;101332.59;2004048;71;32851;-76
2022/06/19 08:30:35;;;;;;;56.97;53.47;;;;;;;16.42;100.00;101318.65;2016733;71;33340;-77
2022/06/19 08:36:19;;;;;;;54.17;50.67;;;;;;;16.81;100.00;101320.91;2011751;71;30849;-75
2022/06/19 08:42:17;;;;;;;55.60;52.20;;;;;;;17.36;100.00;101312.27;2018518;71;33390;-76
2022/06/19 08:45:06;;;;;;;52.67;49.07;;;;;;;17.59;100.00;101328.81;1985618;72;26214;-76
2022/06/19 08:51:19;;;;;;;43.30;40.63;;;;;;;18.23;100.00;101313.03;2007937;71;30886;-74
2022/06/19 08:54:00;;;;;;;36.53;34.33;;;;;;;18.33;100.00;101318.34;1966101;72;26681;-74
2022/06/19 08:56:34;;;;;;;37.03;34.80;;;;;;;18.28;100.00;101315.09;1958465;72;24232;-74
2022/06/19 08:59:08;;;;;;;34.27;32.00;;;;;;;18.23;100.00;101328.50;1967594;72;26666;-74
2022/06/19 09:01:41;;;;;;;39.37;36.87;;;;;;;18.11;100.00;101321.48;1934108;73;26720;-74
2022/06/19 09:07:07;;;;;;;34.93;32.80;;;;;;;17.89;100.00;101330.55;1935407;73;24756;-73
2022/06/19 09:10:06;;;;;;;35.50;33.20;;;;;;;17.77;100.00;101333.13;1938180;73;24196;-73
2022/06/19 09:15:58;;;;;;;27.70;25.90;;;;;;;17.69;100.00;101367.05;2012963;71;30865;-74
2022/06/19 09:21:56;;;;;;;32.43;30.30;;;;;;;17.89;100.00;101427.52;2009817;71;30796;-74
2022/06/19 09:24:40;;;;;;;36.27;33.93;;;;;;;18.00;100.00;101441.01;1960229;72;26698;-74
2022/06/19 09:27:12;;;;;;;31.87;29.97;;;;;;;17.95;100.00;101459.41;1969830;72;26270;-74
2022/06/19 09:33:01;;;;;;;34.57;32.43;;;;;;;18.57;100.00;101477.16;2005745;71;30915;-77
2022/06/19 09:38:51;;;;;;;29.77;27.57;;;;;;;18.77;100.00;101529.83;2004104;71;30948;-76
2022/06/19 09:44:41;;;;;;;22.47;21.13;;;;;;;18.95;100.00;101543.67;2000954;71;31292;-75
2022/06/19 09:50:29;;;;;;;21.90;20.60;;;;;;;18.49;100.00;101567.12;2000942;71;31385;-76
2022/06/19 09:53:04;;;;;;;21.47;19.97;;;;;;;18.45;100.00;101585.79;1974568;72;24616;-77
2022/06/19 09:55:38;;;;;;;19.67;18.20;;;;;;;18.32;100.00;101579.66;1969963;72;26668;-77
2022/06/19 09:58:12;;;;;;;21.30;19.90;;;;;;;18.37;100.00;101572.50;1983549;72;26663;-77
2022/06/19 10:04:02;;;;;;;23.97;22.13;;;;;;;18.22;100.00;101586.39;2000765;71;31335;-76
2022/06/19 10:09:55;;;;;;;23.23;22.00;;;;;;;18.11;100.00;101574.55;2013252;71;31606;-77
2022/06/19 10:15:45;;;;;;;21.70;20.50;;;;;;;18.06;100.00;101572.42;2001089;71;31416;-77
2022/06/19 10:24:25;;;;;;;18.60;17.70;;;;;;;17.99;100.00;101565.84;1984682;72;24617;-75
2022/06/19 10:26:59;;;;;;;18.07;17.00;;;;;;;18.09;100.00;101556.34;1986421;72;24166;-81
2022/06/19 10:29:41;;;;;;;19.23;18.00;;;;;;;18.25;100.00;101558.19;1986006;72;26729;-80
2022/06/19 10:35:38;;;;;;;16.73;15.70;;;;;;;18.42;100.00;101528.20;2002904;71;31346;-78
2022/06/19 10:47:57;;;;;;;14.90;14.13;;;;;;;18.99;100.00;101539.63;2009616;71;31078;-75
2022/06/19 10:50:35;;;;;;;12.97;12.00;;;;;;;18.98;100.00;101543.02;1967185;72;24154;-76
2022/06/19 10:56:35;;;;;;;13.77;13.00;;;;;;;19.07;100.00;101519.94;2008504;71;31343;-77
2022/06/19 11:05:18;;;;;;;13.03;12.20;;;;;;;18.79;100.00;101476.84;1981152;72;24154;-76
2022/06/19 11:11:04;;;;;;;12.00;11.20;;;;;;;19.13;100.00;101474.13;1997101;71;31025;-77
2022/06/19 11:17:16;;;;;;;12.30;11.17;;;;;;;19.22;100.00;101482.03;1994719;71;30999;-78
2022/06/19 11:23:05;;;;;;;11.63;10.93;;;;;;;18.67;100.00;101496.33;1995417;71;31385;-79
2022/06/19 11:28:56;;;;;;;11.90;11.20;;;;;;;18.40;100.00;101501.55;2014971;71;33361;-76
2022/06/19 11:34:47;;;;;;;11.00;10.23;;;;;;;18.11;100.00;101487.37;1997333;70;30980;-79
2022/06/19 11:40:37;;;;;;;11.93;11.10;;;;;;;18.17;100.00;101468.40;2008314;71;33330;-78
2022/06/19 11:46:26;;;;;;;12.97;12.03;;;;;;;17.94;100.00;101435.81;2013460;71;30928;-78
2022/06/19 11:52:18;;;;;;;12.33;11.63;;;;;;;18.10;100.00;101398.55;2009625;71;30892;-77
2022/06/19 11:58:13;;;;;;;12.57;11.87;;;;;;;17.98;100.00;101384.27;2009930;70;31419;-77
2022/06/19 12:04:01;;;;;;;12.80;11.90;;;;;;;18.07;100.00;101404.82;2010112;71;30880;-77
2022/06/19 12:09:59;;;;;;;12.73;12.13;;;;;;;18.18;100.00;101450.38;1979914;71;31087;-78
2022/06/19 12:15:51;;;;;;;12.80;12.00;;;;;;;18.55;100.00;101481.47;2008236;70;30981;-77
2022/06/19 12:21:41;;;;;;;11.63;10.83;;;;;;;19.10;100.00;101505.77;1991644;71;30878;-88
2022/06/19 12:27:35;;;;;;;10.23;9.73;;;;;;;19.33;100.00;101495.23;1995239;71;31544;-78
2022/06/19 12:33:26;;;;;;;10.60;9.80;;;;;;;18.94;100.00;101485.69;2000327;71;30915;-77
2022/06/19 12:39:14;;;;;;;11.23;10.53;;;;;;;18.56;100.00;101468.48;2016977;71;31396;-74
2022/06/19 12:41:49;;;;;;;10.87;10.17;;;;;;;18.50;100.00;101457.66;1981006;72;24224;-76
2022/06/19 12:44:26;;;;;;;10.43;9.73;;;;;;;18.41;100.00;101470.84;1974286;72;24622;-75
2022/06/19 12:47:04;;;;;;;11.40;10.63;;;;;;;18.27;100.00;101483.58;1986639;72;24629;-74
2022/06/19 12:53:07;;;;;;;10.47;9.77;;;;;;;18.45;100.00;101457.78;2015138;71;30937;-75
2022/06/19 12:55:55;;;;;;;10.60;9.67;;;;;;;18.39;100.00;101448.69;1968891;72;24179;-76
2022/06/19 12:59:09;;;;;;;10.30;9.70;;;;;;;18.56;100.00;101439.52;1969987;72;24301;-76
2022/06/19 13:01:45;;;;;;;10.90;10.20;;;;;;;18.74;100.00;101448.26;1916911;72;24224;-76
2022/06/19 13:07:49;;;;;;;9.90;9.33;;;;;;;19.64;100.00;101446.63;2009934;71;30844;-76
2022/06/19 13:14:15;;;;;;;10.53;9.83;;;;;;;19.69;100.00;101444.22;2014903;71;30915;-75
2022/06/19 13:19:58;;;;;;;10.43;9.83;;;;;;;19.86;100.00;101418.83;2003553;71;30335;-75
2022/06/19 13:22:33;;;;;;;10.30;9.60;;;;;;;19.92;100.00;101421.16;1971430;72;24192;-75
2022/06/19 13:25:09;;;;;;;10.10;9.43;;;;;;;20.11;100.00;101413.72;1960382;72;24247;-77
2022/06/19 13:27:49;;;;;;;14.77;10.43;;;;;;;20.11;100.00;101418.56;1967631;72;26752;-74
2022/06/19 13:33:48;;;;;;;11.57;10.47;;;;;;;20.12;100.00;101406.09;2002473;71;30919;-76
2022/06/19 13:39:39;;;;;;;11.30;10.10;;;;;;;20.27;100.00;101398.51;1998421;71;30976;-77
2022/06/19 13:42:34;;;;;;;10.53;9.83;;;;;;;20.30;100.00;101390.22;1984588;72;26641;-76
2022/06/19 13:45:09;;;;;;;10.83;10.07;;;;;;;20.15;100.00;101392.13;1976664;72;24259;-76
2022/06/19 13:47:42;;;;;;;11.13;10.30;;;;;;;20.36;100.00;101395.11;1979259;72;24611;-74
2022/06/19 13:50:18;;;;;;;9.97;9.40;;;;;;;20.42;100.00;101379.63;1977260;72;26764;-75
2022/06/19 13:52:55;;;;;;;10.37;9.60;;;;;;;20.38;100.00;101384.30;1962702;72;24217;-75
2022/06/19 14:02:50;;;;;;;9.67;9.17;;;;;;;20.47;100.00;101378.03;2006058;71;30948;-75
2022/06/19 14:05:25;;;;;;;9.57;8.97;;;;;;;20.25;100.00;101383.90;1981481;72;24209;-75
2022/06/19 14:11:21;;;;;;;9.97;9.27;;;;;;;20.40;100.00;101384.22;2003987;71;31347;-74
2022/06/19 14:17:13;;;;;;;10.30;9.60;;;;;;;20.51;100.00;101386.06;2006214;71;30959;-73
2022/06/19 14:23:00;;;;;;;10.10;9.47;;;;;;;20.73;100.00;101404.72;1995052;71;30814;-74
2022/06/19 14:28:55;;;;;;;10.17;9.67;;;;;;;20.57;100.00;101396.59;2015125;71;30906;-74
2022/06/19 14:35:18;;;;;;;10.37;9.70;;;;;;;20.35;100.00;101383.56;2012796;71;31563;-75
2022/06/19 14:41:47;;;;;;;15.17;9.90;;;;;;;20.11;100.00;101374.23;2016664;71;31407;-74
2022/06/19 14:47:42;;;;;;;10.23;9.53;;;;;;;20.34;100.00;101373.44;1987088;70;30994;-74
2022/06/19 14:54:22;;;;;;;10.33;9.60;;;;;;;20.13;100.00;101370.50;1994827;71;30988;-75
2022/06/19 15:00:46;;;;;;;10.23;9.63;;;;;;;19.86;100.00;101382.18;2014976;71;30966;-75
2022/06/19 15:06:52;;;;;;;10.83;9.90;;;;;;;20.28;100.00;101389.69;2018517;71;30984;-75
2022/06/19 15:12:39;;;;;;;10.40;9.80;;;;;;;20.68;100.00;101369.62;2002454;71;30841;-75
2022/06/19 15:18:36;;;;;;;10.20;9.70;;;;;;;20.41;100.00;101371.73;2000406;71;30868;-74
2022/06/19 15:25:16;;;;;;;10.67;9.97;;;;;;;20.54;100.00;101362.80;2011817;71;31338;-74
2022/06/19 15:31:04;;;;;;;10.37;9.70;;;;;;;20.54;100.00;101363.41;1995358;71;31350;-75
2022/06/19 15:37:20;;;;;;;9.30;8.73;;;;;;;20.52;100.00;101351.03;2009992;71;31290;-74
2022/06/19 15:43:34;;;;;;;8.77;8.27;;;;;;;20.38;100.00;101341.97;1998964;71;30949;-76
2022/06/19 15:49:19;;;;;;;9.03;8.40;;;;;;;20.40;100.00;101335.41;2008068;71;30952;-75
2022/06/19 15:55:10;;;;;;;8.77;8.37;;;;;;;20.48;100.00;101333.13;1995539;71;31293;-69
2022/06/19 16:00:59;;;;;;;10.20;9.60;;;;;;;20.53;100.00;101329.28;2016691;71;30954;-69
2022/06/19 16:06:52;;;;;;;10.60;9.93;;;;;;;20.54;100.00;101333.77;1998620;71;30962;-70
2022/06/19 16:12:38;;;;;;;9.90;9.30;;;;;;;20.47;100.00;101323.58;2018781;71;30904;-71
2022/06/19 16:18:31;;;;;;;9.43;8.93;;;;;;;20.59;100.00;101314.63;2016786;71;30895;-68
2022/06/19 16:24:19;;;;;;;8.87;8.47;;;;;;;20.71;100.00;101341.52;2011710;71;30833;-70
2022/06/19 16:30:11;;;;;;;9.77;9.20;;;;;;;20.63;100.00;101338.17;2011431;71;30917;-70
2022/06/19 16:48:19;;;;;;;9.97;9.37;;;;;;;19.75;100.00;101337.19;2017101;71;30874;-70
2022/06/19 16:54:05;;;;;;;9.80;9.30;;;;;;;19.73;100.00;101357.83;2014944;71;31002;-71
2022/06/19 16:59:53;;;;;;;9.73;9.33;;;;;;;19.36;100.00;101369.20;2004574;71;33276;-72
2022/06/19 17:05:43;;;;;;;9.30;8.90;;;;;;;19.47;100.00;101374.77;2012744;71;30965;-69
2022/06/19 17:11:32;;;;;;;9.60;9.20;;;;;;;19.43;100.00;101356.30;2018626;71;32926;-69
2022/06/19 17:17:25;;;;;;;9.67;9.17;;;;;;;19.47;100.00;101369.97;1994963;71;30797;-69
2022/06/19 17:23:23;;;;;;;9.97;9.37;;;;;;;19.40;100.00;101363.15;2003849;71;30942;-67
2022/06/19 17:29:20;;;;;;;9.90;9.40;;;;;;;19.32;100.00;101364.81;2009805;71;30825;-66
2022/06/19 17:35:11;;;;;;;9.83;9.33;;;;;;;19.18;100.00;101366.13;2010980;71;30989;-69
2022/06/19 17:41:00;;;;;;;11.07;10.27;;;;;;;19.26;100.00;101357.67;2005458;71;30928;-69
2022/06/19 17:46:54;;;;;;;10.00;9.30;;;;;;;18.93;100.00;101369.17;2018475;71;31470;-70
2022/06/19 17:52:50;;;;;;;10.20;9.50;;;;;;;18.98;100.00;101369.84;2005503;71;31011;-70
2022/06/19 17:58:55;;;;;;;10.33;9.83;;;;;;;18.84;100.00;101369.16;2000574;70;31454;-70
2022/06/19 18:04:48;;;;;;;15.97;15.00;;;;;;;18.65;100.00;101372.84;1995015;71;30823;-72
2022/06/19 18:10:38;;;;;;;42.30;40.00;;;;;;;18.19;100.00;101428.95;1994931;71;30928;-71
2022/06/19 18:22:29;;;;;;;49.43;46.63;;;;;;;17.45;100.00;101443.77;2014968;71;33476;-70
2022/06/19 18:28:13;;;;;;;56.20;53.10;;;;;;;17.51;100.00;101438.27;1998403;71;32923;-74
2022/06/19 18:33:57;;;;;;;52.63;49.73;;;;;;;17.47;100.00;101447.08;2011880;71;30831;-70
2022/06/19 18:39:42;;;;;;;52.83;49.87;;;;;;;17.26;100.00;101470.59;2011521;71;30883;-70
2022/06/19 18:45:28;;;;;;;53.77;50.77;;;;;;;17.57;100.00;101487.58;2009574;71;31362;-69
2022/06/19 18:51:16;;;;;;;53.50;50.50;;;;;;;17.25;100.00;101492.22;2003695;71;30912;-67
2022/06/19 18:57:01;;;;;;;50.93;48.03;;;;;;;17.36;100.00;101476.55;1994859;71;30918;-66
2022/06/19 19:02:47;;;;;;;53.57;50.47;;;;;;;17.28;100.00;101459.28;2015086;71;31444;-65
2022/06/19 19:08:35;;;;;;;51.27;48.17;;;;;;;17.26;100.00;101472.83;2014553;71;30917;-66
2022/06/19 19:14:21;;;;;;;51.73;48.80;;;;;;;17.23;100.00;101478.25;2004452;71;31358;-66
2022/06/19 19:20:13;;;;;;;55.23;52.13;;;;;;;17.18;100.00;101521.30;2013142;71;31369;-66
2022/06/19 19:25:59;;;;;;;57.90;54.60;;;;;;;17.01;100.00;101495.84;2007584;71;33389;-66
2022/06/19 19:31:46;;;;;;;58.70;55.10;;;;;;;16.98;100.00;101492.27;2002397;71;30837;-66
2022/06/19 19:37:30;;;;;;;60.70;57.00;;;;;;;16.73;100.00;101510.42;2018419;71;33318;-66
2022/06/19 19:43:15;;;;;;;63.27;59.17;;;;;;;16.83;100.00;101495.38;2005482;71;31406;-66
2022/06/19 19:49:01;;;;;;;63.17;59.07;;;;;;;16.97;100.00;101529.89;2018629;71;33327;-66
2022/06/19 19:54:48;;;;;;;64.10;59.93;;;;;;;16.82;100.00;101518.39;2003871;71;32810;-66
2022/06/19 20:00:33;;;;;;;65.03;60.97;;;;;;;17.10;100.00;101524.84;2002168;71;31431;-67
2022/06/19 20:12:20;;;;;;;65.80;61.27;;;;;;;17.15;100.00;101505.66;2009044;71;30987;-68
2022/06/19 20:18:05;;;;;;;64.77;59.90;;;;;;;17.07;100.00;101535.27;2008230;71;30950;-68
2022/06/19 20:23:54;;;;;;;70.87;66.07;;;;;;;17.07;100.00;101533.88;2006148;71;30916;-67
2022/06/19 20:29:46;;;;;;;69.27;64.13;;;;;;;16.83;100.00;101557.94;2016815;71;30998;-68
2022/06/19 20:32:20;;;;;;;69.20;64.00;;;;;;;16.71;100.00;101581.46;1961575;72;24599;-67
2022/06/19 20:38:09;;;;;;;68.00;62.97;;;;;;;16.46;100.00;101564.22;2016467;71;32833;-67
2022/06/19 20:43:53;;;;;;;67.73;62.60;;;;;;;16.27;100.00;101550.23;2016692;71;33384;-67
2022/06/19 20:49:42;;;;;;;67.97;62.77;;;;;;;16.29;100.00;101569.00;1996941;71;33297;-66
2022/06/19 20:55:31;;;;;;;69.63;64.40;;;;;;;16.23;100.00;101573.85;2004338;71;33303;-68
2022/06/19 21:01:16;;;;;;;68.47;63.37;;;;;;;16.14;100.00;101572.87;2000599;71;33326;-68
2022/06/19 21:10:11;;;;;;;67.27;62.27;;;;;;;15.99;100.00;101578.73;2043314;69;33096;-68
2022/06/19 21:12:41;;;;;;;69.40;64.20;;;;;;;16.13;100.00;101590.83;2016645;70;26284;-68
2022/06/19 21:15:15;;;;;;;70.63;65.53;;;;;;;16.07;100.00;101595.43;1954095;73;26236;-68
2022/06/19 21:17:46;;;;;;;68.73;63.83;;;;;;;16.06;100.00;101597.39;1947435;73;26672;-68
2022/06/19 21:20:17;;;;;;;67.83;62.93;;;;;;;16.16;100.00;101611.27;1969019;72;26212;-68
2022/06/19 21:22:50;;;;;;;69.57;64.33;;;;;;;16.24;100.00;101611.97;1930845;73;26213;-68
2022/06/19 21:25:23;;;;;;;69.23;64.17;;;;;;;16.16;100.00;101614.06;1963330;72;26215;-68
2022/06/19 21:27:56;;;;;;;71.47;66.30;;;;;;;16.25;100.00;101614.20;1937387;73;26668;-68
2022/06/19 21:30:27;;;;;;;69.33;64.43;;;;;;;16.22;100.00;101617.03;1934872;73;26250;-69
2022/06/19 21:32:58;;;;;;;69.30;64.30;;;;;;;16.21;100.00;101619.59;1941383;73;26663;-68
2022/06/19 21:35:28;;;;;;;69.30;64.60;;;;;;;16.15;100.00;101620.80;1971101;72;26577;-68
2022/06/19 21:38:00;;;;;;;71.60;66.60;;;;;;;16.06;100.00;101615.61;1932051;73;26281;-68
2022/06/19 21:40:34;;;;;;;72.20;67.20;;;;;;;16.00;100.00;101619.64;1937453;74;26267;-69
2022/06/19 21:43:05;;;;;;;72.43;67.30;;;;;;;16.11;100.00;101616.94;1937369;73;26657;-69
2022/06/19 21:45:36;;;;;;;69.70;64.47;;;;;;;16.21;100.00;101616.80;1965955;73;26294;-68
2022/06/19 21:48:07;;;;;;;68.57;63.40;;;;;;;16.07;100.00;101620.66;1943463;73;26678;-69
2022/06/19 21:50:39;;;;;;;70.20;65.20;;;;;;;16.14;100.00;101616.89;1965173;72;24225;-68
2022/06/19 21:53:11;;;;;;;72.83;67.70;;;;;;;16.16;100.00;101611.27;1935186;73;26226;-69
2022/06/19 21:55:44;;;;;;;70.03;64.97;;;;;;;16.05;100.00;101599.92;1969181;72;24140;-69
2022/06/19 21:58:16;;;;;;;71.13;66.13;;;;;;;16.06;100.00;101592.35;1934457;73;26243;-68
2022/06/19 22:00:47;;;;;;;69.97;64.83;;;;;;;16.05;100.00;101590.68;1966631;72;26310;-68
2022/06/19 22:03:21;;;;;;;69.03;64.13;;;;;;;16.09;100.00;101588.37;1938683;73;26261;-69
2022/06/19 22:05:53;;;;;;;70.07;65.07;;;;;;;16.08;100.00;101577.48;1971389;72;24681;-69
2022/06/19 22:08:24;;;;;;;69.27;64.10;;;;;;;16.07;100.00;101579.45;1901425;73;26202;-69
2022/06/19 22:13:44;;;;;;;72.07;66.97;;;;;;;16.06;100.00;101569.37;1902410;75;26290;-69
2022/06/19 22:16:17;;;;;;;68.97;64.03;;;;;;;15.95;100.00;101566.47;1902501;75;26229;-69
2022/06/19 22:18:48;;;;;;;73.10;68.00;;;;;;;15.94;100.00;101557.80;1902318;75;26185;-69
2022/06/19 22:21:19;;;;;;;70.83;65.53;;;;;;;15.82;100.00;101558.27;1901728;75;26203;-69
2022/06/19 22:23:51;;;;;;;70.00;64.70;;;;;;;15.84;100.00;101562.98;1901683;75;26233;-69
2022/06/19 22:26:23;;;;;;;72.97;67.80;;;;;;;15.78;100.00;101560.57;1901659;75;24134;-69
2022/06/19 22:28:56;;;;;;;71.40;66.30;;;;;;;15.72;100.00;101558.41;1901746;75;26248;-69
2022/06/19 22:31:29;;;;;;;71.60;66.47;;;;;;;15.68;100.00;101569.11;1901587;75;26665;-69
2022/06/19 22:34:01;;;;;;;70.90;65.93;;;;;;;15.71;100.00;101557.30;1901746;75;26693;-69
2022/06/19 22:36:33;;;;;;;69.47;64.47;;;;;;;15.78;100.00;101548.80;1901608;75;26187;-69
2022/06/19 22:39:07;;;;;;;69.63;64.67;;;;;;;15.66;100.00;101541.98;1901612;75;26742;-69
2022/06/19 22:41:38;;;;;;;72.23;66.90;;;;;;;15.58;100.00;101543.48;1896184;75;26273;-69
2022/06/19 22:44:12;;;;;;;70.13;65.17;;;;;;;15.68;100.00;101548.94;1979440;72;26345;-69
2022/06/19 22:46:43;;;;;;;72.40;67.50;;;;;;;15.51;100.00;101550.03;1979557;72;26801;-69
2022/06/19 22:49:15;;;;;;;69.67;65.03;;;;;;;15.47;100.00;101551.73;1979385;72;26264;-69
2022/06/19 22:51:45;;;;;;;71.70;66.70;;;;;;;15.62;100.00;101559.10;1901800;75;26216;-69
2022/06/19 22:54:16;;;;;;;69.47;64.87;;;;;;;15.54;100.00;101574.62;1901691;75;26622;-69
2022/06/19 22:56:49;;;;;;;70.33;65.73;;;;;;;15.44;100.00;101572.78;1901743;75;26199;-69
2022/06/19 23:02:10;;;;;;;72.00;67.30;;;;;;;15.46;100.00;101571.90;1896255;76;26261;-68
2022/06/19 23:04:41;;;;;;;70.63;65.90;;;;;;;15.46;100.00;101587.30;1979469;72;26231;-69
2022/06/19 23:07:13;;;;;;;68.63;64.03;;;;;;;15.59;100.00;101590.52;1901699;75;26649;-69